sensor_id;sensor_type;location;lat;lon;timestamp;P1;durP1;ratioP1;P2;durP2;ratioP2
47531;SDS011;33273;52.254;7.988;2023-05-23T00:01:04;15.07;;;11.40;;
47531;SDS011;33273;52.254;7.988;2023-05-23T00:03:33;15.57;;;11.63;;
47531;SDS011;33273;52.254;7.988;2023-05-23T00:06:00;17.13;;;11.32;;
47531;SDS011;33273;52.254;7.988;2023-05-23T00:08:26;17.17;;;11.38;;
47531;SDS011;33273;52.254;7.988;2023-05-23T00:10:52;16.10;;;12.55;;
47531;SDS011;33273;52.254;7.988;2023-05-23T00:15:50;19.20;;;12.45;;
47531;SDS011;33273;52.254;7.988;2023-05-23T00:18:18;14.23;;;10.35;;
47531;SDS011;33273;52.254;7.988;2023-05-23T00:20:44;13.45;;;9.57;;
47531;SDS011;33273;52.254;7.988;2023-05-23T00:23:11;12.82;;;9.27;;
47531;SDS011;33273;52.254;7.988;2023-05-23T00:25:43;12.65;;;9.35;;
47531;SDS011;33273;52.254;7.988;2023-05-23T00:28:12;11.70;;;8.48;;
47531;SDS011;33273;52.254;7.988;2023-05-23T00:30:40;12.02;;;8.60;;
47531;SDS011;33273;52.254;7.988;2023-05-23T00:33:07;14.05;;;9.10;;
47531;SDS011;33273;52.254;7.988;2023-05-23T00:35:33;10.85;;;8.07;;
47531;SDS011;33273;52.254;7.988;2023-05-23T00:38:00;12.73;;;9.15;;
47531;SDS011;33273;52.254;7.988;2023-05-23T00:40:26;11.25;;;8.35;;
47531;SDS011;33273;52.254;7.988;2023-05-23T00:42:52;14.48;;;9.32;;
47531;SDS011;33273;52.254;7.988;2023-05-23T00:45:18;14.05;;;9.48;;
47531;SDS011;33273;52.254;7.988;2023-05-23T00:47:45;12.90;;;9.90;;
47531;SDS011;33273;52.254;7.988;2023-05-23T00:50:12;11.05;;;8.70;;
47531;SDS011;33273;52.254;7.988;2023-05-23T00:52:42;12.70;;;9.20;;
47531;SDS011;33273;52.254;7.988;2023-05-23T00:55:09;12.60;;;9.27;;
47531;SDS011;33273;52.254;7.988;2023-05-23T00:57:36;10.50;;;8.30;;
47531;SDS011;33273;52.254;7.988;2023-05-23T01:00:09;10.82;;;8.23;;
47531;SDS011;33273;52.254;7.988;2023-05-23T01:02:44;14.63;;;8.40;;
47531;SDS011;33273;52.254;7.988;2023-05-23T01:05:11;12.20;;;8.30;;
47531;SDS011;33273;52.254;7.988;2023-05-23T01:07:45;11.45;;;8.45;;
47531;SDS011;33273;52.254;7.988;2023-05-23T01:10:12;12.65;;;8.57;;
47531;SDS011;33273;52.254;7.988;2023-05-23T01:18:08;12.85;;;9.32;;
47531;SDS011;33273;52.254;7.988;2023-05-23T01:20:40;15.80;;;9.38;;
47531;SDS011;33273;52.254;7.988;2023-05-23T01:23:17;13.38;;;9.98;;
47531;SDS011;33273;52.254;7.988;2023-05-23T01:26:12;12.68;;;9.05;;
47531;SDS011;33273;52.254;7.988;2023-05-23T01:28:49;14.02;;;9.55;;
47531;SDS011;33273;52.254;7.988;2023-05-23T01:31:19;15.32;;;10.25;;
47531;SDS011;33273;52.254;7.988;2023-05-23T01:33:48;11.93;;;9.45;;
47531;SDS011;33273;52.254;7.988;2023-05-23T01:36:17;13.40;;;10.20;;
47531;SDS011;33273;52.254;7.988;2023-05-23T01:38:43;15.15;;;10.50;;
47531;SDS011;33273;52.254;7.988;2023-05-23T01:41:09;16.63;;;9.90;;
47531;SDS011;33273;52.254;7.988;2023-05-23T01:43:36;15.82;;;11.40;;
47531;SDS011;33273;52.254;7.988;2023-05-23T01:46:02;13.85;;;10.73;;
47531;SDS011;33273;52.254;7.988;2023-05-23T01:48:30;20.80;;;11.15;;
47531;SDS011;33273;52.254;7.988;2023-05-23T01:50:56;14.05;;;10.25;;
47531;SDS011;33273;52.254;7.988;2023-05-23T01:53:24;13.80;;;10.20;;
47531;SDS011;33273;52.254;7.988;2023-05-23T01:55:51;14.43;;;9.90;;
47531;SDS011;33273;52.254;7.988;2023-05-23T01:58:19;14.35;;;10.13;;
47531;SDS011;33273;52.254;7.988;2023-05-23T02:00:45;15.13;;;10.52;;
47531;SDS011;33273;52.254;7.988;2023-05-23T02:03:11;14.18;;;9.82;;
47531;SDS011;33273;52.254;7.988;2023-05-23T02:05:37;13.60;;;10.40;;
47531;SDS011;33273;52.254;7.988;2023-05-23T02:08:04;16.23;;;10.75;;
47531;SDS011;33273;52.254;7.988;2023-05-23T02:10:30;14.97;;;10.53;;
47531;SDS011;33273;52.254;7.988;2023-05-23T02:12:59;15.95;;;10.45;;
47531;SDS011;33273;52.254;7.988;2023-05-23T02:15:26;16.00;;;10.10;;
47531;SDS011;33273;52.254;7.988;2023-05-23T02:17:52;14.13;;;9.83;;
47531;SDS011;33273;52.254;7.988;2023-05-23T02:20:19;17.02;;;11.00;;
47531;SDS011;33273;52.254;7.988;2023-05-23T02:22:46;13.15;;;9.80;;
47531;SDS011;33273;52.254;7.988;2023-05-23T02:25:12;14.63;;;11.13;;
47531;SDS011;33273;52.254;7.988;2023-05-23T02:27:39;15.77;;;10.60;;
47531;SDS011;33273;52.254;7.988;2023-05-23T02:30:05;17.20;;;10.95;;
47531;SDS011;33273;52.254;7.988;2023-05-23T02:32:32;15.70;;;11.25;;
47531;SDS011;33273;52.254;7.988;2023-05-23T02:34:59;16.60;;;11.75;;
47531;SDS011;33273;52.254;7.988;2023-05-23T02:37:27;19.38;;;13.82;;
47531;SDS011;33273;52.254;7.988;2023-05-23T02:39:54;19.70;;;14.32;;
47531;SDS011;33273;52.254;7.988;2023-05-23T02:42:20;20.52;;;13.57;;
47531;SDS011;33273;52.254;7.988;2023-05-23T02:44:46;20.48;;;14.85;;
47531;SDS011;33273;52.254;7.988;2023-05-23T02:47:12;23.47;;;14.27;;
47531;SDS011;33273;52.254;7.988;2023-05-23T02:49:38;24.73;;;14.97;;
47531;SDS011;33273;52.254;7.988;2023-05-23T02:54:31;28.77;;;17.75;;
47531;SDS011;33273;52.254;7.988;2023-05-23T02:57:00;27.37;;;17.43;;
47531;SDS011;33273;52.254;7.988;2023-05-23T02:59:33;24.83;;;16.85;;
47531;SDS011;33273;52.254;7.988;2023-05-23T03:01:58;30.05;;;18.48;;
47531;SDS011;33273;52.254;7.988;2023-05-23T03:04:24;28.23;;;17.58;;
47531;SDS011;33273;52.254;7.988;2023-05-23T03:06:52;28.40;;;17.58;;
47531;SDS011;33273;52.254;7.988;2023-05-23T03:09:21;27.67;;;17.40;;
47531;SDS011;33273;52.254;7.988;2023-05-23T03:11:47;30.13;;;17.60;;
47531;SDS011;33273;52.254;7.988;2023-05-23T03:14:13;26.93;;;16.37;;
47531;SDS011;33273;52.254;7.988;2023-05-23T03:16:38;26.92;;;16.25;;
47531;SDS011;33273;52.254;7.988;2023-05-23T03:19:04;27.77;;;17.13;;
47531;SDS011;33273;52.254;7.988;2023-05-23T03:21:31;22.20;;;14.25;;
47531;SDS011;33273;52.254;7.988;2023-05-23T03:24:00;19.23;;;13.90;;
47531;SDS011;33273;52.254;7.988;2023-05-23T03:26:29;19.45;;;13.23;;
47531;SDS011;33273;52.254;7.988;2023-05-23T03:28:55;19.75;;;14.30;;
47531;SDS011;33273;52.254;7.988;2023-05-23T03:31:21;21.60;;;14.20;;
47531;SDS011;33273;52.254;7.988;2023-05-23T03:33:47;22.15;;;13.88;;
47531;SDS011;33273;52.254;7.988;2023-05-23T03:36:12;22.70;;;14.20;;
47531;SDS011;33273;52.254;7.988;2023-05-23T03:38:39;20.15;;;14.30;;
47531;SDS011;33273;52.254;7.988;2023-05-23T03:41:06;19.63;;;14.68;;
47531;SDS011;33273;52.254;7.988;2023-05-23T03:46:01;26.55;;;16.60;;
47531;SDS011;33273;52.254;7.988;2023-05-23T03:48:29;21.70;;;15.02;;
47531;SDS011;33273;52.254;7.988;2023-05-23T03:50:56;21.98;;;14.85;;
47531;SDS011;33273;52.254;7.988;2023-05-23T03:53:22;27.70;;;16.77;;
47531;SDS011;33273;52.254;7.988;2023-05-23T03:55:48;24.40;;;15.47;;
47531;SDS011;33273;52.254;7.988;2023-05-23T03:58:14;23.40;;;15.48;;
47531;SDS011;33273;52.254;7.988;2023-05-23T04:00:43;22.95;;;16.23;;
47531;SDS011;33273;52.254;7.988;2023-05-23T04:03:10;20.65;;;16.05;;
47531;SDS011;33273;52.254;7.988;2023-05-23T04:05:39;22.17;;;14.82;;
47531;SDS011;33273;52.254;7.988;2023-05-23T04:08:05;23.95;;;16.25;;
47531;SDS011;33273;52.254;7.988;2023-05-23T04:10:34;21.08;;;15.30;;
47531;SDS011;33273;52.254;7.988;2023-05-23T04:13:00;22.85;;;15.50;;
47531;SDS011;33273;52.254;7.988;2023-05-23T04:15:28;22.52;;;15.98;;
47531;SDS011;33273;52.254;7.988;2023-05-23T04:18:03;25.98;;;16.83;;
47531;SDS011;33273;52.254;7.988;2023-05-23T04:20:29;25.55;;;17.33;;
47531;SDS011;33273;52.254;7.988;2023-05-23T04:22:55;21.80;;;16.13;;
47531;SDS011;33273;52.254;7.988;2023-05-23T04:25:23;20.73;;;16.42;;
47531;SDS011;33273;52.254;7.988;2023-05-23T04:28:02;31.77;;;17.25;;
47531;SDS011;33273;52.254;7.988;2023-05-23T04:30:29;22.80;;;16.27;;
47531;SDS011;33273;52.254;7.988;2023-05-23T04:32:56;27.73;;;17.55;;
47531;SDS011;33273;52.254;7.988;2023-05-23T04:35:26;27.30;;;16.55;;
47531;SDS011;33273;52.254;7.988;2023-05-23T04:37:55;28.17;;;18.80;;
47531;SDS011;33273;52.254;7.988;2023-05-23T04:40:23;27.48;;;17.83;;
47531;SDS011;33273;52.254;7.988;2023-05-23T04:43:11;29.63;;;18.48;;
47531;SDS011;33273;52.254;7.988;2023-05-23T04:45:51;28.73;;;17.77;;
47531;SDS011;33273;52.254;7.988;2023-05-23T04:48:47;26.90;;;17.73;;
47531;SDS011;33273;52.254;7.988;2023-05-23T04:51:15;29.13;;;17.95;;
47531;SDS011;33273;52.254;7.988;2023-05-23T04:53:50;27.90;;;16.92;;
47531;SDS011;33273;52.254;7.988;2023-05-23T04:56:16;24.15;;;16.08;;
47531;SDS011;33273;52.254;7.988;2023-05-23T04:58:47;23.55;;;16.08;;
47531;SDS011;33273;52.254;7.988;2023-05-23T05:01:15;23.50;;;16.27;;
47531;SDS011;33273;52.254;7.988;2023-05-23T05:03:41;26.05;;;16.52;;
47531;SDS011;33273;52.254;7.988;2023-05-23T05:06:07;28.13;;;17.52;;
47531;SDS011;33273;52.254;7.988;2023-05-23T05:08:34;29.23;;;17.15;;
47531;SDS011;33273;52.254;7.988;2023-05-23T05:11:01;25.73;;;17.90;;
47531;SDS011;33273;52.254;7.988;2023-05-23T05:13:27;25.42;;;15.02;;
47531;SDS011;33273;52.254;7.988;2023-05-23T05:15:54;28.05;;;13.85;;
47531;SDS011;33273;52.254;7.988;2023-05-23T05:18:21;25.60;;;14.70;;
47531;SDS011;33273;52.254;7.988;2023-05-23T05:20:48;21.42;;;14.05;;
47531;SDS011;33273;52.254;7.988;2023-05-23T05:23:16;33.40;;;14.68;;
47531;SDS011;33273;52.254;7.988;2023-05-23T05:25:42;19.35;;;12.43;;
47531;SDS011;33273;52.254;7.988;2023-05-23T05:28:08;20.08;;;12.77;;
47531;SDS011;33273;52.254;7.988;2023-05-23T05:30:41;20.90;;;12.75;;
47531;SDS011;33273;52.254;7.988;2023-05-23T05:33:10;20.75;;;12.70;;
47531;SDS011;33273;52.254;7.988;2023-05-23T05:35:36;20.88;;;12.93;;
47531;SDS011;33273;52.254;7.988;2023-05-23T05:38:06;26.30;;;13.55;;
47531;SDS011;33273;52.254;7.988;2023-05-23T05:40:34;20.98;;;11.95;;
47531;SDS011;33273;52.254;7.988;2023-05-23T05:43:01;23.40;;;12.18;;
47531;SDS011;33273;52.254;7.988;2023-05-23T05:45:28;18.08;;;11.85;;
47531;SDS011;33273;52.254;7.988;2023-05-23T05:47:54;22.17;;;12.73;;
47531;SDS011;33273;52.254;7.988;2023-05-23T05:50:22;18.63;;;11.85;;
47531;SDS011;33273;52.254;7.988;2023-05-23T05:52:48;21.55;;;11.75;;
47531;SDS011;33273;52.254;7.988;2023-05-23T05:55:15;21.45;;;11.13;;
47531;SDS011;33273;52.254;7.988;2023-05-23T05:57:44;20.77;;;11.25;;
47531;SDS011;33273;52.254;7.988;2023-05-23T06:00:11;19.38;;;11.15;;
47531;SDS011;33273;52.254;7.988;2023-05-23T06:02:50;18.48;;;11.45;;
47531;SDS011;33273;52.254;7.988;2023-05-23T06:05:29;18.13;;;11.07;;
47531;SDS011;33273;52.254;7.988;2023-05-23T06:07:55;20.42;;;11.90;;
47531;SDS011;33273;52.254;7.988;2023-05-23T06:10:21;14.77;;;8.70;;
47531;SDS011;33273;52.254;7.988;2023-05-23T06:12:49;15.32;;;9.98;;
47531;SDS011;33273;52.254;7.988;2023-05-23T06:15:15;12.32;;;7.85;;
47531;SDS011;33273;52.254;7.988;2023-05-23T06:17:41;14.68;;;7.68;;
47531;SDS011;33273;52.254;7.988;2023-05-23T06:20:09;9.60;;;6.68;;
47531;SDS011;33273;52.254;7.988;2023-05-23T06:22:38;12.27;;;6.63;;
47531;SDS011;33273;52.254;7.988;2023-05-23T06:25:05;12.20;;;6.03;;
47531;SDS011;33273;52.254;7.988;2023-05-23T06:27:31;15.40;;;7.68;;
47531;SDS011;33273;52.254;7.988;2023-05-23T06:29:57;16.07;;;6.00;;
47531;SDS011;33273;52.254;7.988;2023-05-23T06:32:23;11.37;;;6.37;;
47531;SDS011;33273;52.254;7.988;2023-05-23T06:34:50;7.03;;;5.00;;
47531;SDS011;33273;52.254;7.988;2023-05-23T06:37:15;6.90;;;4.83;;
47531;SDS011;33273;52.254;7.988;2023-05-23T06:39:42;9.25;;;5.00;;
47531;SDS011;33273;52.254;7.988;2023-05-23T06:42:09;5.90;;;3.83;;
47531;SDS011;33273;52.254;7.988;2023-05-23T06:44:53;4.65;;;3.30;;
47531;SDS011;33273;52.254;7.988;2023-05-23T06:47:19;4.50;;;2.90;;
47531;SDS011;33273;52.254;7.988;2023-05-23T06:49:44;5.87;;;2.83;;
47531;SDS011;33273;52.254;7.988;2023-05-23T06:52:10;5.00;;;2.80;;
47531;SDS011;33273;52.254;7.988;2023-05-23T06:54:37;4.00;;;2.55;;
47531;SDS011;33273;52.254;7.988;2023-05-23T06:57:04;5.47;;;3.10;;
47531;SDS011;33273;52.254;7.988;2023-05-23T06:59:30;5.57;;;2.92;;
47531;SDS011;33273;52.254;7.988;2023-05-23T07:01:56;4.85;;;2.85;;
47531;SDS011;33273;52.254;7.988;2023-05-23T07:06:48;5.57;;;3.08;;
47531;SDS011;33273;52.254;7.988;2023-05-23T07:09:14;6.85;;;3.38;;
47531;SDS011;33273;52.254;7.988;2023-05-23T07:11:41;5.75;;;2.95;;
47531;SDS011;33273;52.254;7.988;2023-05-23T07:14:07;4.53;;;2.75;;
47531;SDS011;33273;52.254;7.988;2023-05-23T07:16:37;4.70;;;3.17;;
47531;SDS011;33273;52.254;7.988;2023-05-23T07:19:05;5.30;;;2.97;;
47531;SDS011;33273;52.254;7.988;2023-05-23T07:21:35;11.02;;;3.53;;
47531;SDS011;33273;52.254;7.988;2023-05-23T07:24:01;10.35;;;4.00;;
47531;SDS011;33273;52.254;7.988;2023-05-23T07:26:28;8.48;;;4.70;;
47531;SDS011;33273;52.254;7.988;2023-05-23T07:28:54;12.43;;;4.53;;
47531;SDS011;33273;52.254;7.988;2023-05-23T07:31:21;9.57;;;5.30;;
47531;SDS011;33273;52.254;7.988;2023-05-23T07:33:50;10.35;;;5.15;;
47531;SDS011;33273;52.254;7.988;2023-05-23T07:36:21;14.40;;;5.47;;
47531;SDS011;33273;52.254;7.988;2023-05-23T07:38:49;11.48;;;5.10;;
47531;SDS011;33273;52.254;7.988;2023-05-23T07:41:14;9.23;;;4.60;;
47531;SDS011;33273;52.254;7.988;2023-05-23T07:43:40;7.40;;;4.70;;
47531;SDS011;33273;52.254;7.988;2023-05-23T07:46:07;7.53;;;4.38;;
47531;SDS011;33273;52.254;7.988;2023-05-23T07:48:33;10.93;;;4.70;;
47531;SDS011;33273;52.254;7.988;2023-05-23T07:50:59;8.88;;;4.40;;
47531;SDS011;33273;52.254;7.988;2023-05-23T07:53:25;14.65;;;5.03;;
47531;SDS011;33273;52.254;7.988;2023-05-23T07:55:51;13.10;;;4.10;;
47531;SDS011;33273;52.254;7.988;2023-05-23T07:58:19;9.65;;;4.65;;
47531;SDS011;33273;52.254;7.988;2023-05-23T08:00:46;8.25;;;4.15;;
47531;SDS011;33273;52.254;7.988;2023-05-23T08:03:29;12.93;;;4.80;;
47531;SDS011;33273;52.254;7.988;2023-05-23T08:06:04;11.25;;;4.70;;
47531;SDS011;33273;52.254;7.988;2023-05-23T08:08:32;8.45;;;4.63;;
47531;SDS011;33273;52.254;7.988;2023-05-23T08:10:59;10.23;;;5.45;;
47531;SDS011;33273;52.254;7.988;2023-05-23T08:13:32;10.38;;;5.25;;
47531;SDS011;33273;52.254;7.988;2023-05-23T08:16:34;13.38;;;6.03;;
47531;SDS011;33273;52.254;7.988;2023-05-23T08:19:01;13.45;;;6.13;;
47531;SDS011;33273;52.254;7.988;2023-05-23T08:21:27;13.85;;;5.50;;
47531;SDS011;33273;52.254;7.988;2023-05-23T08:23:53;13.80;;;5.90;;
47531;SDS011;33273;52.254;7.988;2023-05-23T08:26:19;12.87;;;5.67;;
47531;SDS011;33273;52.254;7.988;2023-05-23T08:28:46;11.55;;;5.43;;
47531;SDS011;33273;52.254;7.988;2023-05-23T08:31:12;19.65;;;6.63;;
47531;SDS011;33273;52.254;7.988;2023-05-23T08:33:38;13.38;;;5.82;;
47531;SDS011;33273;52.254;7.988;2023-05-23T08:36:05;14.63;;;6.43;;
47531;SDS011;33273;52.254;7.988;2023-05-23T08:38:31;16.23;;;7.07;;
47531;SDS011;33273;52.254;7.988;2023-05-23T08:41:11;15.90;;;6.50;;
47531;SDS011;33273;52.254;7.988;2023-05-23T08:43:46;13.95;;;6.50;;
47531;SDS011;33273;52.254;7.988;2023-05-23T08:46:20;21.75;;;7.20;;
47531;SDS011;33273;52.254;7.988;2023-05-23T08:48:51;13.85;;;6.68;;
47531;SDS011;33273;52.254;7.988;2023-05-23T08:51:24;11.95;;;5.85;;
47531;SDS011;33273;52.254;7.988;2023-05-23T08:53:50;11.63;;;7.07;;
47531;SDS011;33273;52.254;7.988;2023-05-23T08:56:19;14.80;;;6.20;;
47531;SDS011;33273;52.254;7.988;2023-05-23T08:58:47;17.85;;;7.88;;
47531;SDS011;33273;52.254;7.988;2023-05-23T09:01:17;15.77;;;6.70;;
47531;SDS011;33273;52.254;7.988;2023-05-23T09:03:47;13.48;;;5.72;;
47531;SDS011;33273;52.254;7.988;2023-05-23T09:06:33;15.35;;;5.07;;
47531;SDS011;33273;52.254;7.988;2023-05-23T09:08:59;15.18;;;5.75;;
47531;SDS011;33273;52.254;7.988;2023-05-23T09:11:25;20.83;;;6.20;;
47531;SDS011;33273;52.254;7.988;2023-05-23T09:13:53;12.48;;;5.88;;
47531;SDS011;33273;52.254;7.988;2023-05-23T09:16:30;14.18;;;5.15;;
47531;SDS011;33273;52.254;7.988;2023-05-23T09:19:11;9.60;;;5.35;;
47531;SDS011;33273;52.254;7.988;2023-05-23T09:21:42;13.25;;;5.20;;
47531;SDS011;33273;52.254;7.988;2023-05-23T09:24:35;13.57;;;5.95;;
47531;SDS011;33273;52.254;7.988;2023-05-23T09:27:06;12.05;;;5.38;;
47531;SDS011;33273;52.254;7.988;2023-05-23T09:29:36;15.48;;;4.47;;
47531;SDS011;33273;52.254;7.988;2023-05-23T09:32:11;9.43;;;4.25;;
47531;SDS011;33273;52.254;7.988;2023-05-23T09:37:28;9.38;;;3.95;;
47531;SDS011;33273;52.254;7.988;2023-05-23T09:42:35;10.93;;;4.50;;
47531;SDS011;33273;52.254;7.988;2023-05-23T09:45:07;9.90;;;4.20;;
47531;SDS011;33273;52.254;7.988;2023-05-23T09:47:33;13.27;;;4.70;;
47531;SDS011;33273;52.254;7.988;2023-05-23T09:50:00;14.43;;;4.67;;
47531;SDS011;33273;52.254;7.988;2023-05-23T09:52:26;15.30;;;4.38;;
47531;SDS011;33273;52.254;7.988;2023-05-23T09:55:01;11.32;;;5.35;;
47531;SDS011;33273;52.254;7.988;2023-05-23T09:57:27;8.95;;;4.97;;
47531;SDS011;33273;52.254;7.988;2023-05-23T09:59:53;12.23;;;4.20;;
47531;SDS011;33273;52.254;7.988;2023-05-23T10:05:33;12.32;;;4.30;;
47531;SDS011;33273;52.254;7.988;2023-05-23T10:08:04;12.90;;;4.53;;
47531;SDS011;33273;52.254;7.988;2023-05-23T10:10:35;12.75;;;4.05;;
47531;SDS011;33273;52.254;7.988;2023-05-23T10:13:24;11.77;;;4.05;;
47531;SDS011;33273;52.254;7.988;2023-05-23T10:19:02;9.43;;;4.50;;
47531;SDS011;33273;52.254;7.988;2023-05-23T10:21:36;7.13;;;3.15;;
47531;SDS011;33273;52.254;7.988;2023-05-23T10:24:24;11.43;;;3.78;;
47531;SDS011;33273;52.254;7.988;2023-05-23T10:26:52;9.60;;;3.75;;
47531;SDS011;33273;52.254;7.988;2023-05-23T10:29:23;15.00;;;4.25;;
47531;SDS011;33273;52.254;7.988;2023-05-23T10:31:49;19.75;;;4.72;;
47531;SDS011;33273;52.254;7.988;2023-05-23T10:37:02;19.65;;;5.18;;
47531;SDS011;33273;52.254;7.988;2023-05-23T10:42:08;14.18;;;3.90;;
47531;SDS011;33273;52.254;7.988;2023-05-23T10:44:41;13.80;;;4.35;;
47531;SDS011;33273;52.254;7.988;2023-05-23T10:47:07;11.57;;;3.63;;
47531;SDS011;33273;52.254;7.988;2023-05-23T10:49:37;11.60;;;3.67;;
47531;SDS011;33273;52.254;7.988;2023-05-23T10:52:04;13.30;;;4.25;;
47531;SDS011;33273;52.254;7.988;2023-05-23T10:54:34;13.48;;;4.75;;
47531;SDS011;33273;52.254;7.988;2023-05-23T10:57:21;8.30;;;3.53;;
47531;SDS011;33273;52.254;7.988;2023-05-23T10:59:53;13.45;;;4.55;;
47531;SDS011;33273;52.254;7.988;2023-05-23T11:02:24;17.35;;;4.40;;
47531;SDS011;33273;52.254;7.988;2023-05-23T11:07:42;14.88;;;4.53;;
47531;SDS011;33273;52.254;7.988;2023-05-23T11:10:09;9.13;;;3.42;;
47531;SDS011;33273;52.254;7.988;2023-05-23T11:12:40;13.98;;;4.78;;
47531;SDS011;33273;52.254;7.988;2023-05-23T11:17:49;11.95;;;3.72;;
47531;SDS011;33273;52.254;7.988;2023-05-23T11:20:16;15.55;;;4.63;;
47531;SDS011;33273;52.254;7.988;2023-05-23T11:22:54;15.25;;;4.43;;
47531;SDS011;33273;52.254;7.988;2023-05-23T11:25:43;10.90;;;4.03;;
47531;SDS011;33273;52.254;7.988;2023-05-23T11:28:09;15.80;;;4.63;;
47531;SDS011;33273;52.254;7.988;2023-05-23T11:30:37;14.43;;;4.28;;
47531;SDS011;33273;52.254;7.988;2023-05-23T11:33:07;20.35;;;4.32;;
47531;SDS011;33273;52.254;7.988;2023-05-23T11:35:44;11.05;;;3.92;;
47531;SDS011;33273;52.254;7.988;2023-05-23T11:38:12;11.85;;;4.20;;
47531;SDS011;33273;52.254;7.988;2023-05-23T11:40:41;16.00;;;4.80;;
47531;SDS011;33273;52.254;7.988;2023-05-23T11:43:09;16.63;;;4.13;;
47531;SDS011;33273;52.254;7.988;2023-05-23T11:45:38;11.48;;;3.70;;
47531;SDS011;33273;52.254;7.988;2023-05-23T11:48:11;15.75;;;4.38;;
47531;SDS011;33273;52.254;7.988;2023-05-23T11:50:48;11.68;;;3.63;;
47531;SDS011;33273;52.254;7.988;2023-05-23T11:53:15;15.40;;;5.60;;
47531;SDS011;33273;52.254;7.988;2023-05-23T11:55:49;18.40;;;5.05;;
47531;SDS011;33273;52.254;7.988;2023-05-23T11:58:17;11.73;;;3.92;;
47531;SDS011;33273;52.254;7.988;2023-05-23T12:00:46;13.50;;;4.13;;
47531;SDS011;33273;52.254;7.988;2023-05-23T12:03:12;11.05;;;4.55;;
47531;SDS011;33273;52.254;7.988;2023-05-23T12:05:38;10.97;;;3.90;;
47531;SDS011;33273;52.254;7.988;2023-05-23T12:08:04;11.18;;;3.67;;
47531;SDS011;33273;52.254;7.988;2023-05-23T12:10:30;12.43;;;3.97;;
47531;SDS011;33273;52.254;7.988;2023-05-23T12:12:55;13.03;;;4.53;;
47531;SDS011;33273;52.254;7.988;2023-05-23T12:15:25;13.90;;;4.60;;
47531;SDS011;33273;52.254;7.988;2023-05-23T12:17:54;9.65;;;3.42;;
47531;SDS011;33273;52.254;7.988;2023-05-23T12:20:22;11.93;;;4.13;;
47531;SDS011;33273;52.254;7.988;2023-05-23T12:22:52;12.52;;;3.88;;
47531;SDS011;33273;52.254;7.988;2023-05-23T12:25:18;7.95;;;3.63;;
47531;SDS011;33273;52.254;7.988;2023-05-23T12:27:47;9.30;;;4.15;;
47531;SDS011;33273;52.254;7.988;2023-05-23T12:30:13;14.15;;;3.85;;
47531;SDS011;33273;52.254;7.988;2023-05-23T12:32:44;13.70;;;3.97;;
47531;SDS011;33273;52.254;7.988;2023-05-23T12:35:12;9.32;;;4.30;;
47531;SDS011;33273;52.254;7.988;2023-05-23T12:37:45;14.55;;;3.95;;
47531;SDS011;33273;52.254;7.988;2023-05-23T12:40:15;16.70;;;3.88;;
47531;SDS011;33273;52.254;7.988;2023-05-23T12:42:43;15.70;;;3.78;;
47531;SDS011;33273;52.254;7.988;2023-05-23T12:45:22;10.57;;;3.80;;
47531;SDS011;33273;52.254;7.988;2023-05-23T12:47:54;11.38;;;3.63;;
47531;SDS011;33273;52.254;7.988;2023-05-23T12:50:20;10.47;;;4.03;;
47531;SDS011;33273;52.254;7.988;2023-05-23T12:52:46;9.77;;;3.72;;
47531;SDS011;33273;52.254;7.988;2023-05-23T12:55:12;12.53;;;4.73;;
47531;SDS011;33273;52.254;7.988;2023-05-23T12:57:38;16.17;;;3.75;;
47531;SDS011;33273;52.254;7.988;2023-05-23T13:00:05;15.93;;;4.20;;
47531;SDS011;33273;52.254;7.988;2023-05-23T13:02:32;12.68;;;3.85;;
47531;SDS011;33273;52.254;7.988;2023-05-23T13:04:58;11.02;;;3.85;;
47531;SDS011;33273;52.254;7.988;2023-05-23T13:07:23;13.87;;;3.60;;
47531;SDS011;33273;52.254;7.988;2023-05-23T13:09:49;9.07;;;3.80;;
47531;SDS011;33273;52.254;7.988;2023-05-23T13:12:15;10.73;;;3.47;;
47531;SDS011;33273;52.254;7.988;2023-05-23T13:14:41;11.07;;;3.57;;
47531;SDS011;33273;52.254;7.988;2023-05-23T13:17:07;10.67;;;3.70;;
47531;SDS011;33273;52.254;7.988;2023-05-23T13:19:33;9.43;;;3.28;;
47531;SDS011;33273;52.254;7.988;2023-05-23T13:21:58;7.43;;;2.83;;
47531;SDS011;33273;52.254;7.988;2023-05-23T13:24:25;8.95;;;3.35;;
47531;SDS011;33273;52.254;7.988;2023-05-23T13:26:52;9.93;;;3.45;;
47531;SDS011;33273;52.254;7.988;2023-05-23T13:29:18;7.67;;;3.33;;
47531;SDS011;33273;52.254;7.988;2023-05-23T13:31:44;14.90;;;4.60;;
47531;SDS011;33273;52.254;7.988;2023-05-23T13:34:11;12.05;;;3.53;;
47531;SDS011;33273;52.254;7.988;2023-05-23T13:36:37;14.45;;;3.80;;
47531;SDS011;33273;52.254;7.988;2023-05-23T13:39:03;15.05;;;5.10;;
47531;SDS011;33273;52.254;7.988;2023-05-23T13:41:29;10.87;;;3.43;;
47531;SDS011;33273;52.254;7.988;2023-05-23T13:43:55;9.93;;;3.67;;
47531;SDS011;33273;52.254;7.988;2023-05-23T13:46:21;13.23;;;3.53;;
47531;SDS011;33273;52.254;7.988;2023-05-23T13:48:47;13.30;;;3.67;;
47531;SDS011;33273;52.254;7.988;2023-05-23T13:51:12;12.47;;;3.63;;
47531;SDS011;33273;52.254;7.988;2023-05-23T13:53:38;13.18;;;3.42;;
47531;SDS011;33273;52.254;7.988;2023-05-23T13:56:05;8.73;;;3.60;;
47531;SDS011;33273;52.254;7.988;2023-05-23T13:58:31;8.57;;;3.35;;
47531;SDS011;33273;52.254;7.988;2023-05-23T14:00:58;12.77;;;3.85;;
47531;SDS011;33273;52.254;7.988;2023-05-23T14:03:24;9.23;;;3.37;;
47531;SDS011;33273;52.254;7.988;2023-05-23T14:05:50;11.02;;;3.45;;
47531;SDS011;33273;52.254;7.988;2023-05-23T14:08:15;10.57;;;3.17;;
47531;SDS011;33273;52.254;7.988;2023-05-23T14:10:41;9.45;;;2.97;;
47531;SDS011;33273;52.254;7.988;2023-05-23T14:13:08;8.20;;;2.70;;
47531;SDS011;33273;52.254;7.988;2023-05-23T14:15:36;8.32;;;3.42;;
47531;SDS011;33273;52.254;7.988;2023-05-23T14:18:03;13.98;;;3.25;;
47531;SDS011;33273;52.254;7.988;2023-05-23T14:20:29;7.75;;;3.10;;
47531;SDS011;33273;52.254;7.988;2023-05-23T14:22:56;10.52;;;3.15;;
47531;SDS011;33273;52.254;7.988;2023-05-23T14:25:21;11.60;;;3.20;;
47531;SDS011;33273;52.254;7.988;2023-05-23T14:27:47;11.88;;;3.80;;
47531;SDS011;33273;52.254;7.988;2023-05-23T14:30:15;8.25;;;3.28;;
47531;SDS011;33273;52.254;7.988;2023-05-23T14:32:40;9.65;;;3.47;;
47531;SDS011;33273;52.254;7.988;2023-05-23T14:35:07;9.63;;;2.87;;
47531;SDS011;33273;52.254;7.988;2023-05-23T14:37:37;8.70;;;3.08;;
47531;SDS011;33273;52.254;7.988;2023-05-23T14:40:06;7.75;;;2.83;;
47531;SDS011;33273;52.254;7.988;2023-05-23T14:42:34;8.75;;;3.13;;
47531;SDS011;33273;52.254;7.988;2023-05-23T14:45:00;10.05;;;3.20;;
47531;SDS011;33273;52.254;7.988;2023-05-23T14:47:26;12.15;;;3.42;;
47531;SDS011;33273;52.254;7.988;2023-05-23T14:49:52;9.07;;;3.75;;
47531;SDS011;33273;52.254;7.988;2023-05-23T14:52:18;11.88;;;3.50;;
47531;SDS011;33273;52.254;7.988;2023-05-23T14:54:44;10.27;;;3.37;;
47531;SDS011;33273;52.254;7.988;2023-05-23T14:57:10;8.13;;;2.97;;
47531;SDS011;33273;52.254;7.988;2023-05-23T14:59:36;11.73;;;2.75;;
47531;SDS011;33273;52.254;7.988;2023-05-23T15:02:02;7.38;;;2.72;;
47531;SDS011;33273;52.254;7.988;2023-05-23T15:04:31;11.88;;;4.00;;
47531;SDS011;33273;52.254;7.988;2023-05-23T15:06:57;8.15;;;2.80;;
47531;SDS011;33273;52.254;7.988;2023-05-23T15:09:25;9.55;;;3.25;;
47531;SDS011;33273;52.254;7.988;2023-05-23T15:11:54;7.35;;;2.55;;
47531;SDS011;33273;52.254;7.988;2023-05-23T15:14:21;6.30;;;2.45;;
47531;SDS011;33273;52.254;7.988;2023-05-23T15:16:47;7.85;;;2.75;;
47531;SDS011;33273;52.254;7.988;2023-05-23T15:19:14;9.38;;;2.72;;